Time;durP1;ratioP1;P1;durP2;ratioP2;P2;SDS_P1;SDS_P2;PMS_P1;PMS_P2;Temp;Humidity;BMP_temperature;BMP_pressure;BME280_temperature;BME280_humidity;BME280_pressure;Samples;Min_cycle;Max_cycle;Signal;HPM_P1;HPM_P2
2024/04/10 00:00:01;;;;;;;10.33;2.33;;;;;;;;;;5337882;26;20583;-70
2024/04/10 00:02:26;;;;;;;7.37;2.40;;;;;;;;;;5338552;26;20499;-69
2024/04/10 00:04:53;;;;;;;5.80;2.27;;;;;;;;;;5333738;26;20241;-68
2024/04/10 00:07:18;;;;;;;9.67;2.37;;;;;;;;;;5331275;26;20327;-69
2024/04/10 00:09:44;;;;;;;5.93;2.23;;;;;;;;;;5337462;26;20237;-69
2024/04/10 00:12:09;;;;;;;4.20;2.27;;;;;;;;;;5325139;26;20327;-68
2024/04/10 00:14:37;;;;;;;8.37;3.30;;;;;;;;;;5330196;26;20284;-69
2024/04/10 00:17:03;;;;;;;8.17;3.37;;;;;;;;;;5349130;26;20323;-69
2024/04/10 00:19:28;;;;;;;8.97;2.30;;;;;;;;;;5335626;26;20279;-67
2024/04/10 00:21:56;;;;;;;7.17;3.37;;;;;;;;;;5338235;26;20603;-68
2024/04/10 00:24:21;;;;;;;9.20;2.67;;;;;;;;;;5339630;26;20233;-68
2024/04/10 00:26:50;;;;;;;7.37;2.43;;;;;;;;;;5314320;26;20280;-70
2024/04/10 00:29:15;;;;;;;5.83;2.67;;;;;;;;;;5341817;26;20310;-68
2024/04/10 00:31:40;;;;;;;9.30;3.57;;;;;;;;;;5313172;26;20241;-69
2024/04/10 00:34:05;;;;;;;10.73;3.30;;;;;;;;;;5343957;26;20233;-68
2024/04/10 00:36:31;;;;;;;9.70;2.77;;;;;;;;;;5341155;26;20237;-68
2024/04/10 00:38:56;;;;;;;11.13;2.77;;;;;;;;;;5304677;26;20865;-69
2024/04/10 00:41:21;;;;;;;8.63;3.87;;;;;;;;;;5336099;26;20240;-68
2024/04/10 00:43:47;;;;;;;9.50;2.83;;;;;;;;;;5337717;26;20346;-69
2024/04/10 00:46:16;;;;;;;7.47;3.07;;;;;;;;;;5334294;26;20287;-69
2024/04/10 00:48:42;;;;;;;10.20;3.13;;;;;;;;;;5306111;26;20319;-69
2024/04/10 00:51:08;;;;;;;7.97;2.83;;;;;;;;;;5342531;26;20237;-68
2024/04/10 00:53:34;;;;;;;11.63;3.27;;;;;;;;;;5343450;26;20233;-68
2024/04/10 00:55:59;;;;;;;11.37;3.90;;;;;;;;;;5309395;26;20634;-69
2024/04/10 00:58:25;;;;;;;12.17;3.67;;;;;;;;;;5332605;26;20241;-69
2024/04/10 01:00:50;;;;;;;8.63;3.43;;;;;;;;;;5339712;26;20241;-68
2024/04/10 01:03:16;;;;;;;7.90;2.93;;;;;;;;;;5314892;26;20249;-69
2024/04/10 01:05:41;;;;;;;11.43;2.67;;;;;;;;;;5339603;26;20217;-69
2024/04/10 01:08:06;;;;;;;11.90;2.90;;;;;;;;;;5336901;26;20748;-68
2024/04/10 01:10:31;;;;;;;13.13;3.17;;;;;;;;;;5343208;26;20275;-68
2024/04/10 01:12:57;;;;;;;4.97;2.50;;;;;;;;;;5337299;26;20245;-68
2024/04/10 01:15:22;;;;;;;14.97;2.97;;;;;;;;;;5337154;26;20244;-69
2024/04/10 01:17:47;;;;;;;6.13;2.60;;;;;;;;;;5331262;26;20245;-68
2024/04/10 01:20:12;;;;;;;10.27;3.60;;;;;;;;;;5341928;26;20293;-70
2024/04/10 01:22:38;;;;;;;8.50;2.50;;;;;;;;;;5329947;26;20237;-68
2024/04/10 01:25:03;;;;;;;11.90;2.90;;;;;;;;;;5342335;26;20288;-70
2024/04/10 01:27:29;;;;;;;14.67;2.80;;;;;;;;;;5340848;26;20241;-69
2024/04/10 01:29:54;;;;;;;13.87;3.13;;;;;;;;;;5334161;26;20882;-68
2024/04/10 01:32:19;;;;;;;13.90;2.80;;;;;;;;;;5336921;26;20286;-68
2024/04/10 01:34:44;;;;;;;7.27;3.37;;;;;;;;;;5332725;26;20304;-67
2024/04/10 01:37:09;;;;;;;9.90;3.20;;;;;;;;;;5298559;26;20687;-69
2024/04/10 01:39:35;;;;;;;9.37;3.23;;;;;;;;;;5334985;26;20248;-67
2024/04/10 01:42:00;;;;;;;9.20;2.60;;;;;;;;;;5332598;26;20716;-68
2024/04/10 01:44:25;;;;;;;11.00;3.03;;;;;;;;;;5334326;26;20241;-68
2024/04/10 01:46:52;;;;;;;14.50;3.67;;;;;;;;;;5332116;26;20661;-68
2024/04/10 01:49:17;;;;;;;9.33;3.07;;;;;;;;;;5334010;26;20233;-68
2024/04/10 01:51:42;;;;;;;7.60;2.50;;;;;;;;;;5333221;26;20233;-68
2024/04/10 01:54:08;;;;;;;7.20;3.03;;;;;;;;;;5325499;26;20283;-67
2024/04/10 01:56:34;;;;;;;11.83;2.50;;;;;;;;;;5328366;26;20256;-69
2024/04/10 01:58:59;;;;;;;13.17;2.70;;;;;;;;;;5339417;26;20344;-68
2024/04/10 02:01:24;;;;;;;7.90;2.73;;;;;;;;;;5331060;26;20813;-69
2024/04/10 02:03:49;;;;;;;9.90;2.57;;;;;;;;;;5314872;26;20241;-68
2024/04/10 02:06:14;;;;;;;8.80;3.07;;;;;;;;;;5343865;26;20288;-69
2024/04/10 02:08:40;;;;;;;9.30;2.73;;;;;;;;;;5314017;26;20253;-69
2024/04/10 02:11:26;;;;;;;8.33;3.10;;;;;;;;;;5318760;26;20792;-67
2024/04/10 02:13:51;;;;;;;15.33;3.53;;;;;;;;;;5323435;26;20288;-69
2024/04/10 02:16:16;;;;;;;10.03;2.20;;;;;;;;;;5333111;26;20763;-69
2024/04/10 02:18:41;;;;;;;12.33;2.97;;;;;;;;;;5340270;26;20282;-70
2024/04/10 02:21:07;;;;;;;10.60;3.13;;;;;;;;;;5331186;26;20293;-67
2024/04/10 02:23:32;;;;;;;7.27;2.83;;;;;;;;;;5339760;26;20286;-69
2024/04/10 02:25:57;;;;;;;11.80;3.30;;;;;;;;;;5339023;26;20232;-69
2024/04/10 02:28:23;;;;;;;11.13;3.27;;;;;;;;;;5336522;26;20241;-69
2024/04/10 02:30:48;;;;;;;8.83;2.20;;;;;;;;;;5327317;26;20841;-69
2024/04/10 02:33:13;;;;;;;9.53;3.07;;;;;;;;;;5334254;26;20244;-68
2024/04/10 02:35:38;;;;;;;10.10;2.70;;;;;;;;;;5317932;26;20252;-69
2024/04/10 02:38:04;;;;;;;12.83;3.17;;;;;;;;;;5346528;26;20256;-69
2024/04/10 02:40:29;;;;;;;6.53;3.20;;;;;;;;;;5342419;26;20241;-68
2024/04/10 02:43:04;;;;;;;11.93;2.40;;;;;;;;;;5337078;26;20237;-69
2024/04/10 02:45:29;;;;;;;10.03;2.57;;;;;;;;;;5330425;26;20240;-69
2024/04/10 02:47:55;;;;;;;11.83;2.60;;;;;;;;;;5312149;26;20287;-69
2024/04/10 02:50:20;;;;;;;15.77;2.87;;;;;;;;;;5309308;26;20267;-68
2024/04/10 02:52:45;;;;;;;10.93;2.87;;;;;;;;;;5300332;26;20245;-69
2024/04/10 02:55:10;;;;;;;10.17;2.80;;;;;;;;;;5334251;26;20221;-69
2024/04/10 02:57:35;;;;;;;9.83;2.60;;;;;;;;;;5339068;26;20763;-69
2024/04/10 03:00:00;;;;;;;9.17;3.83;;;;;;;;;;5310283;26;20237;-69
2024/04/10 03:03:56;;;;;;;9.40;2.90;;;;;;;;;;5519824;25;20911;-68
2024/04/10 03:06:22;;;;;;;13.03;3.07;;;;;;;;;;5490916;25;20263;-68
2024/04/10 03:08:48;;;;;;;12.10;2.53;;;;;;;;;;5456323;26;20341;-69
2024/04/10 03:11:16;;;;;;;9.77;2.87;;;;;;;;;;5460850;26;20229;-69
2024/04/10 03:13:41;;;;;;;7.63;2.43;;;;;;;;;;5464895;26;20240;-68
2024/04/10 03:16:06;;;;;;;8.30;2.83;;;;;;;;;;5471643;21;20270;-72
2024/04/10 03:18:32;;;;;;;10.90;2.63;;;;;;;;;;5419363;26;20253;-69
2024/04/10 03:20:57;;;;;;;9.63;3.10;;;;;;;;;;5428911;26;20798;-70
2024/04/10 03:23:23;;;;;;;15.20;3.00;;;;;;;;;;5422043;26;20230;-70
2024/04/10 03:25:58;;;;;;;6.20;2.47;;;;;;;;;;5423179;26;20281;-70
2024/04/10 03:28:23;;;;;;;19.50;3.23;;;;;;;;;;5425323;26;20226;-70
2024/04/10 03:30:52;;;;;;;10.93;3.10;;;;;;;;;;5426741;26;20337;-71
2024/04/10 03:33:17;;;;;;;10.77;2.40;;;;;;;;;;5428028;26;20249;-71
2024/04/10 03:35:42;;;;;;;11.10;2.60;;;;;;;;;;5430332;26;20343;-70
2024/04/10 03:38:07;;;;;;;9.13;2.40;;;;;;;;;;5429645;26;20234;-71
2024/04/10 03:40:32;;;;;;;10.70;2.47;;;;;;;;;;5431928;26;20327;-71
2024/04/10 03:42:58;;;;;;;12.43;2.53;;;;;;;;;;5427429;26;20241;-71
2024/04/10 03:45:23;;;;;;;10.57;3.13;;;;;;;;;;5419921;26;20622;-71
2024/04/10 03:47:48;;;;;;;7.93;2.33;;;;;;;;;;5424447;26;20258;-71
2024/04/10 03:50:14;;;;;;;11.93;3.47;;;;;;;;;;5428079;26;20278;-71
2024/04/10 03:52:39;;;;;;;11.73;2.97;;;;;;;;;;5427666;26;20265;-71
2024/04/10 03:55:04;;;;;;;14.43;4.20;;;;;;;;;;5430987;26;20250;-71
2024/04/10 03:57:30;;;;;;;10.67;2.80;;;;;;;;;;5428763;26;20335;-71
2024/04/10 03:59:55;;;;;;;14.37;3.13;;;;;;;;;;5431122;26;20656;-70
2024/04/10 04:02:20;;;;;;;12.10;2.70;;;;;;;;;;5419764;26;20230;-71
2024/04/10 04:04:46;;;;;;;9.03;2.73;;;;;;;;;;5430005;26;20288;-70
2024/04/10 04:07:11;;;;;;;7.07;2.27;;;;;;;;;;5425843;26;20242;-70
2024/04/10 04:09:36;;;;;;;10.07;2.50;;;;;;;;;;5426858;26;20354;-70
2024/04/10 04:12:01;;;;;;;9.33;2.43;;;;;;;;;;5423102;26;20283;-72
2024/04/10 04:14:27;;;;;;;11.07;3.10;;;;;;;;;;5410001;26;20238;-71
2024/04/10 04:16:52;;;;;;;7.43;2.67;;;;;;;;;;5412076;26;20242;-71
2024/04/10 04:19:17;;;;;;;8.03;2.13;;;;;;;;;;5412831;26;20231;-72
2024/04/10 04:21:43;;;;;;;8.40;2.60;;;;;;;;;;5398944;26;20269;-71
2024/04/10 04:24:08;;;;;;;11.57;3.10;;;;;;;;;;5391752;26;20251;-71
2024/04/10 04:26:33;;;;;;;11.93;2.80;;;;;;;;;;5411874;26;20373;-70
2024/04/10 04:28:58;;;;;;;7.83;2.50;;;;;;;;;;5412586;26;20619;-69
2024/04/10 04:31:23;;;;;;;12.03;3.30;;;;;;;;;;5411488;26;20648;-71
2024/04/10 04:33:49;;;;;;;13.73;2.63;;;;;;;;;;5403598;26;20262;-71
2024/04/10 04:36:15;;;;;;;9.70;2.37;;;;;;;;;;5410069;26;20282;-71
2024/04/10 04:38:41;;;;;;;8.63;2.40;;;;;;;;;;5402654;26;20246;-70
2024/04/10 04:41:06;;;;;;;8.67;2.33;;;;;;;;;;5412721;26;20235;-70
2024/04/10 04:43:31;;;;;;;13.27;2.97;;;;;;;;;;5405876;26;20231;-71
2024/04/10 04:45:56;;;;;;;10.00;2.60;;;;;;;;;;5405848;26;20305;-70
2024/04/10 04:48:21;;;;;;;10.57;2.53;;;;;;;;;;5409449;26;20230;-71
2024/04/10 04:50:47;;;;;;;10.50;2.70;;;;;;;;;;5402794;26;20320;-70
2024/04/10 04:53:13;;;;;;;7.10;2.47;;;;;;;;;;5402393;26;20228;-71
2024/04/10 04:55:38;;;;;;;11.77;2.23;;;;;;;;;;5415232;26;20387;-71
2024/04/10 04:58:04;;;;;;;6.77;2.83;;;;;;;;;;5396210;26;20239;-70
2024/04/10 05:00:30;;;;;;;5.97;2.67;;;;;;;;;;5411760;26;20251;-71
2024/04/10 05:02:55;;;;;;;6.10;2.33;;;;;;;;;;5399658;26;20230;-71
2024/04/10 05:05:20;;;;;;;8.93;2.17;;;;;;;;;;5413475;26;20246;-71
2024/04/10 05:07:46;;;;;;;14.67;2.43;;;;;;;;;;5403757;26;20265;-71
2024/04/10 05:10:12;;;;;;;8.33;2.30;;;;;;;;;;5413097;26;20324;-71
2024/04/10 05:12:38;;;;;;;9.30;2.80;;;;;;;;;;5412663;26;20282;-72
2024/04/10 05:15:04;;;;;;;14.00;2.07;;;;;;;;;;5407195;26;20281;-71
2024/04/10 05:17:29;;;;;;;7.03;2.43;;;;;;;;;;5406951;26;20242;-72
2024/04/10 05:19:55;;;;;;;7.13;1.83;;;;;;;;;;5411138;26;20287;-72
2024/04/10 05:22:20;;;;;;;8.00;2.40;;;;;;;;;;5403394;26;20231;-70
2024/04/10 05:24:45;;;;;;;6.07;2.77;;;;;;;;;;5408329;26;20281;-70
2024/04/10 05:27:21;;;;;;;11.07;3.03;;;;;;;;;;5403072;26;20315;-71
2024/04/10 05:29:46;;;;;;;6.57;2.33;;;;;;;;;;5409924;26;20264;-71
2024/04/10 05:32:11;;;;;;;12.27;2.03;;;;;;;;;;5401875;26;20239;-71
2024/04/10 05:34:37;;;;;;;7.77;2.97;;;;;;;;;;5409813;26;20219;-72
2024/04/10 05:37:02;;;;;;;7.13;2.37;;;;;;;;;;5396379;26;20270;-72
2024/04/10 05:39:28;;;;;;;10.73;2.17;;;;;;;;;;5405286;26;20247;-71
2024/04/10 05:41:54;;;;;;;10.63;2.10;;;;;;;;;;5405843;26;20235;-70
2024/04/10 05:44:20;;;;;;;7.80;2.43;;;;;;;;;;5412536;26;20273;-71
2024/04/10 05:46:45;;;;;;;15.13;2.50;;;;;;;;;;5408329;26;20588;-71
2024/04/10 05:49:10;;;;;;;7.07;3.03;;;;;;;;;;5409941;26;20694;-70
2024/04/10 05:51:36;;;;;;;13.03;3.10;;;;;;;;;;5411510;26;20780;-70
2024/04/10 05:54:02;;;;;;;10.47;2.10;;;;;;;;;;5407309;26;20556;-71
2024/04/10 05:56:28;;;;;;;9.20;2.00;;;;;;;;;;5395091;26;20242;-70
2024/04/10 05:58:53;;;;;;;11.10;3.50;;;;;;;;;;5401253;26;20296;-71
2024/04/10 06:01:18;;;;;;;10.43;2.90;;;;;;;;;;5382630;26;20278;-71
2024/04/10 06:03:44;;;;;;;10.90;2.40;;;;;;;;;;5401555;26;20663;-70
2024/04/10 06:06:12;;;;;;;8.63;2.23;;;;;;;;;;5406371;26;20231;-71
2024/04/10 06:08:38;;;;;;;9.97;2.33;;;;;;;;;;5411459;26;20243;-71
2024/04/10 06:11:03;;;;;;;5.07;2.03;;;;;;;;;;5409963;26;20816;-70
2024/04/10 06:13:28;;;;;;;7.03;1.97;;;;;;;;;;5408874;26;20231;-71
2024/04/10 06:16:00;;;;;;;6.93;2.50;;;;;;;;;;5400574;26;20242;-70
2024/04/10 06:18:25;;;;;;;8.40;1.90;;;;;;;;;;5402681;26;20244;-70
2024/04/10 06:21:00;;;;;;;10.73;2.83;;;;;;;;;;5404388;26;20718;-70
2024/04/10 06:23:27;;;;;;;6.03;1.83;;;;;;;;;;5400079;26;20351;-71
2024/04/10 06:25:52;;;;;;;7.90;2.43;;;;;;;;;;5399861;26;20246;-70
2024/04/10 06:28:17;;;;;;;11.87;2.67;;;;;;;;;;5402538;26;20273;-69
2024/04/10 06:30:43;;;;;;;7.27;1.87;;;;;;;;;;5399829;26;20741;-70
2024/04/10 06:33:08;;;;;;;10.90;2.67;;;;;;;;;;5400884;26;20472;-71
2024/04/10 06:35:33;;;;;;;10.17;2.20;;;;;;;;;;5400259;26;20745;-71
2024/04/10 06:37:59;;;;;;;12.40;2.43;;;;;;;;;;5397406;26;20376;-71
2024/04/10 06:40:24;;;;;;;7.87;2.33;;;;;;;;;;5398943;26;20246;-72
2024/04/10 06:42:49;;;;;;;7.17;3.07;;;;;;;;;;5394304;26;20347;-71
2024/04/10 06:45:14;;;;;;;8.87;2.63;;;;;;;;;;5407007;26;20243;-72
2024/04/10 06:47:40;;;;;;;8.87;2.83;;;;;;;;;;5401987;26;20702;-72
2024/04/10 06:50:06;;;;;;;12.57;2.40;;;;;;;;;;5397781;26;20343;-72
2024/04/10 06:52:31;;;;;;;7.33;1.60;;;;;;;;;;5401024;26;20739;-72
2024/04/10 06:54:56;;;;;;;6.97;2.77;;;;;;;;;;5393597;26;20230;-71
2024/04/10 06:57:22;;;;;;;7.83;1.77;;;;;;;;;;5397941;26;20582;-70
2024/04/10 06:59:47;;;;;;;8.67;1.97;;;;;;;;;;5401125;26;20285;-71
2024/04/10 07:02:12;;;;;;;4.13;1.50;;;;;;;;;;5399172;26;20231;-71
2024/04/10 07:04:37;;;;;;;10.77;2.63;;;;;;;;;;5395272;26;20801;-72
2024/04/10 07:07:03;;;;;;;6.13;2.45;;;;;;;;;;5405449;26;20234;-71
2024/04/10 07:09:28;;;;;;;13.82;3.05;;;;;;;;;;5409951;26;20235;-72
2024/04/10 07:11:54;;;;;;;11.48;2.20;;;;;;;;;;5400457;26;20737;-70
2024/04/10 07:14:19;;;;;;;8.27;1.95;;;;;;;;;;5405051;26;20250;-70
2024/04/10 07:16:44;;;;;;;6.68;1.67;;;;;;;;;;5417104;26;20276;-71
2024/04/10 07:19:09;;;;;;;8.00;1.92;;;;;;;;;;5412812;26;20239;-71
2024/04/10 07:21:35;;;;;;;8.23;1.85;;;;;;;;;;5402262;26;20239;-72
2024/04/10 07:24:01;;;;;;;12.20;2.20;;;;;;;;;;5401103;26;20286;-72
2024/04/10 07:26:27;;;;;;;7.82;2.20;;;;;;;;;;5406455;26;20304;-72
2024/04/10 07:28:53;;;;;;;7.43;1.75;;;;;;;;;;5407175;26;20243;-72
2024/04/10 07:31:36;;;;;;;6.88;2.72;;;;;;;;;;5396643;26;20359;-73
2024/04/10 07:34:03;;;;;;;11.45;1.50;;;;;;;;;;5389335;26;20273;-70
2024/04/10 07:36:30;;;;;;;9.10;1.83;;;;;;;;;;5400206;26;20235;-71
2024/04/10 07:38:56;;;;;;;6.68;2.47;;;;;;;;;;5410053;26;20281;-71
2024/04/10 07:41:22;;;;;;;8.23;2.33;;;;;;;;;;5405922;26;20371;-71
2024/04/10 07:43:49;;;;;;;8.55;1.80;;;;;;;;;;5409603;26;20246;-71
2024/04/10 07:46:15;;;;;;;10.10;2.30;;;;;;;;;;5408212;26;20306;-71
2024/04/10 07:48:42;;;;;;;8.45;1.80;;;;;;;;;;5407078;26;20246;-71
2024/04/10 07:51:09;;;;;;;10.50;1.98;;;;;;;;;;5402292;26;20761;-71
2024/04/10 07:53:38;;;;;;;6.88;2.38;;;;;;;;;;5386886;26;20644;-71
2024/04/10 07:56:04;;;;;;;5.07;1.75;;;;;;;;;;5386661;26;20250;-71
2024/04/10 07:58:30;;;;;;;10.50;2.22;;;;;;;;;;5396472;26;20286;-71
2024/04/10 08:00:57;;;;;;;9.40;2.05;;;;;;;;;;5387881;26;20234;-71
2024/04/10 08:03:25;;;;;;;12.13;1.77;;;;;;;;;;5384452;26;20246;-71
2024/04/10 08:05:51;;;;;;;7.18;1.63;;;;;;;;;;5385813;26;20874;-70
2024/04/10 08:08:16;;;;;;;8.13;2.08;;;;;;;;;;5386992;26;20398;-71
2024/04/10 08:10:42;;;;;;;5.53;2.17;;;;;;;;;;5385392;26;20587;-71
2024/04/10 08:13:07;;;;;;;6.85;1.73;;;;;;;;;;5386895;26;20247;-71
2024/04/10 08:15:32;;;;;;;5.22;1.60;;;;;;;;;;5382975;26;20239;-71
2024/04/10 08:17:57;;;;;;;4.55;1.45;;;;;;;;;;5388727;26;20747;-70
2024/04/10 08:20:22;;;;;;;6.43;2.10;;;;;;;;;;5395358;26;21298;-71
2024/04/10 08:22:48;;;;;;;8.70;1.85;;;;;;;;;;5387115;26;20251;-70
2024/04/10 08:25:13;;;;;;;5.50;2.15;;;;;;;;;;5388944;26;20238;-71
2024/04/10 08:27:38;;;;;;;8.43;2.38;;;;;;;;;;5386643;26;20246;-70
2024/04/10 08:30:03;;;;;;;14.57;2.20;;;;;;;;;;5386754;26;21050;-70
2024/04/10 08:32:30;;;;;;;9.93;1.95;;;;;;;;;;5383132;26;20712;-71
2024/04/10 08:34:55;;;;;;;6.18;2.22;;;;;;;;;;5389338;26;20244;-71
2024/04/10 08:37:20;;;;;;;7.20;1.70;;;;;;;;;;5386996;26;20251;-72
2024/04/10 08:39:48;;;;;;;8.00;1.85;;;;;;;;;;5387623;26;20653;-71
2024/04/10 08:42:18;;;;;;;10.77;1.98;;;;;;;;;;5384993;26;20234;-71
2024/04/10 08:44:43;;;;;;;7.20;2.10;;;;;;;;;;5383707;26;20246;-70
2024/04/10 08:47:09;;;;;;;7.57;1.92;;;;;;;;;;5380401;26;22172;-71
2024/04/10 08:49:34;;;;;;;5.10;1.58;;;;;;;;;;5387186;26;20242;-71
2024/04/10 08:52:00;;;;;;;8.25;1.67;;;;;;;;;;5385466;26;20237;-70
2024/04/10 08:54:26;;;;;;;10.07;2.70;;;;;;;;;;5385635;26;20353;-71
2024/04/10 08:56:51;;;;;;;8.27;1.90;;;;;;;;;;5384559;26;20277;-71
2024/04/10 08:59:16;;;;;;;7.50;1.85;;;;;;;;;;5386963;26;20262;-71
2024/04/10 09:01:43;;;;;;;6.20;1.67;;;;;;;;;;5384725;26;20235;-70
2024/04/10 09:04:09;;;;;;;3.78;1.60;;;;;;;;;;5382841;26;20235;-70
2024/04/10 09:06:34;;;;;;;6.22;1.88;;;;;;;;;;5384437;26;20239;-70
2024/04/10 09:09:00;;;;;;;8.40;1.48;;;;;;;;;;5384834;26;20303;-70
2024/04/10 09:11:26;;;;;;;6.93;1.95;;;;;;;;;;5385051;26;20305;-70
2024/04/10 09:14:04;;;;;;;3.72;1.30;;;;;;;;;;5383526;26;20239;-70
2024/04/10 09:16:30;;;;;;;3.15;1.17;;;;;;;;;;5386446;26;20255;-71
2024/04/10 09:18:55;;;;;;;4.18;1.77;;;;;;;;;;5388126;26;20347;-70
2024/04/10 09:21:20;;;;;;;5.13;1.98;;;;;;;;;;5386120;26;20235;-69
2024/04/10 09:23:46;;;;;;;3.05;1.30;;;;;;;;;;5386629;26;20916;-70
2024/04/10 09:26:17;;;;;;;6.93;1.73;;;;;;;;;;5387850;26;20273;-70
2024/04/10 09:28:42;;;;;;;2.50;1.27;;;;;;;;;;5383799;26;20231;-70
2024/04/10 09:31:16;;;;;;;4.07;1.38;;;;;;;;;;5380702;26;20273;-69
2024/04/10 09:33:42;;;;;;;4.57;1.52;;;;;;;;;;5384215;26;20250;-70
2024/04/10 09:36:08;;;;;;;4.57;1.67;;;;;;;;;;5387830;26;20273;-70
2024/04/10 09:38:33;;;;;;;5.45;1.13;;;;;;;;;;5383980;26;20261;-70
2024/04/10 09:41:02;;;;;;;4.82;1.20;;;;;;;;;;5382414;26;20274;-70
2024/04/10 09:43:28;;;;;;;6.50;1.38;;;;;;;;;;5408665;26;20238;-70
2024/04/10 09:45:56;;;;;;;4.60;0.98;;;;;;;;;;5384875;26;20725;-70
2024/04/10 09:48:22;;;;;;;9.73;1.67;;;;;;;;;;5384338;26;20296;-70
2024/04/10 09:50:47;;;;;;;2.75;0.75;;;;;;;;;;5390042;26;20869;-71
2024/04/10 09:53:15;;;;;;;3.97;1.00;;;;;;;;;;5384920;26;22007;-71
2024/04/10 09:55:40;;;;;;;5.95;1.10;;;;;;;;;;5385671;26;20242;-68
2024/04/10 09:58:07;;;;;;;2.70;1.30;;;;;;;;;;5387199;26;20247;-70
2024/04/10 10:00:33;;;;;;;3.95;1.30;;;;;;;;;;5383837;26;20235;-69
2024/04/10 10:03:03;;;;;;;3.78;1.50;;;;;;;;;;5383327;26;20236;-70
2024/04/10 10:05:28;;;;;;;3.55;1.15;;;;;;;;;;5383563;26;20282;-71
2024/04/10 10:08:02;;;;;;;4.85;1.00;;;;;;;;;;5384206;26;20246;-70
2024/04/10 10:10:27;;;;;;;5.88;1.33;;;;;;;;;;5383528;26;20776;-70
2024/04/10 10:12:52;;;;;;;3.85;1.10;;;;;;;;;;5382850;26;20231;-70
2024/04/10 10:15:20;;;;;;;4.20;1.17;;;;;;;;;;5381311;26;20231;-70
2024/04/10 10:17:51;;;;;;;5.55;1.25;;;;;;;;;;5384024;26;20310;-68
2024/04/10 10:20:20;;;;;;;2.78;1.23;;;;;;;;;;5390830;26;20239;-70
2024/04/10 10:22:55;;;;;;;4.13;0.88;;;;;;;;;;5385792;26;20298;-69
2024/04/10 10:25:21;;;;;;;2.53;0.65;;;;;;;;;;5386799;26;20562;-70
2024/04/10 10:27:46;;;;;;;3.35;1.40;;;;;;;;;;5382218;26;20460;-71
2024/04/10 10:30:11;;;;;;;5.97;0.88;;;;;;;;;;5385100;26;20306;-71
2024/04/10 10:32:36;;;;;;;2.30;0.77;;;;;;;;;;5382749;26;20244;-69
2024/04/10 10:35:08;;;;;;;6.75;1.30;;;;;;;;;;5387574;26;20239;-71
2024/04/10 10:37:34;;;;;;;3.78;0.68;;;;;;;;;;5386058;26;20329;-69
2024/04/10 10:40:00;;;;;;;2.92;0.95;;;;;;;;;;5383391;26;20579;-70
2024/04/10 10:42:26;;;;;;;5.30;1.17;;;;;;;;;;5385615;26;21584;-70
2024/04/10 10:45:01;;;;;;;3.75;0.80;;;;;;;;;;5384976;26;20254;-71
2024/04/10 10:47:26;;;;;;;6.95;1.35;;;;;;;;;;5388721;26;20239;-70
2024/04/10 10:50:00;;;;;;;5.07;0.93;;;;;;;;;;5385298;26;20338;-70
2024/04/10 10:52:25;;;;;;;3.42;0.73;;;;;;;;;;5381440;26;20234;-70
2024/04/10 10:54:51;;;;;;;2.28;0.77;;;;;;;;;;5384280;26;20277;-70
2024/04/10 10:57:16;;;;;;;1.33;0.90;;;;;;;;;;5382616;26;20246;-69
2024/04/10 10:59:43;;;;;;;7.28;0.70;;;;;;;;;;5382577;26;20238;-69
2024/04/10 11:02:15;;;;;;;3.42;1.00;;;;;;;;;;5383891;26;20239;-70
2024/04/10 11:04:40;;;;;;;2.75;0.90;;;;;;;;;;5383881;26;20247;-71
2024/04/10 11:07:06;;;;;;;4.38;1.17;;;;;;;;;;5384000;26;20305;-70
2024/04/10 11:09:32;;;;;;;3.58;0.93;;;;;;;;;;5381297;26;20281;-70
2024/04/10 11:11:58;;;;;;;2.63;0.93;;;;;;;;;;5381567;26;20773;-71
2024/04/10 11:14:23;;;;;;;2.85;0.70;;;;;;;;;;5388425;26;20285;-71
2024/04/10 11:16:56;;;;;;;5.57;0.60;;;;;;;;;;5382145;26;20242;-70
2024/04/10 11:19:22;;;;;;;3.78;1.13;;;;;;;;;;5397276;26;20231;-71
2024/04/10 11:21:47;;;;;;;5.28;0.98;;;;;;;;;;5383314;26;20324;-71
2024/04/10 11:24:12;;;;;;;1.40;0.50;;;;;;;;;;5393635;26;21182;-70
2024/04/10 11:26:37;;;;;;;5.15;1.08;;;;;;;;;;5389938;26;20238;-70
2024/04/10 11:29:02;;;;;;;3.25;0.93;;;;;;;;;;5387215;26;20355;-71
2024/04/10 11:31:28;;;;;;;2.83;0.95;;;;;;;;;;5382649;26;20306;-69
2024/04/10 11:33:53;;;;;;;4.00;0.80;;;;;;;;;;5386730;26;20238;-70
2024/04/10 11:36:18;;;;;;;2.33;0.73;;;;;;;;;;5388786;26;20281;-70
2024/04/10 11:38:43;;;;;;;1.77;0.60;;;;;;;;;;5383123;26;20288;-69
2024/04/10 11:41:13;;;;;;;3.15;1.00;;;;;;;;;;5385090;26;20242;-70
2024/04/10 11:43:38;;;;;;;4.13;0.95;;;;;;;;;;5386675;26;20246;-70
2024/04/10 11:46:03;;;;;;;1.98;0.40;;;;;;;;;;5386032;26;20277;-70
2024/04/10 11:48:28;;;;;;;3.35;1.00;;;;;;;;;;5387757;26;20646;-69
2024/04/10 11:50:55;;;;;;;4.22;0.77;;;;;;;;;;5388691;26;20820;-70
2024/04/10 11:53:20;;;;;;;7.05;1.45;;;;;;;;;;5381729;26;20234;-69
2024/04/10 11:55:45;;;;;;;1.40;0.45;;;;;;;;;;5385465;26;20231;-70
2024/04/10 11:58:11;;;;;;;2.58;0.60;;;;;;;;;;5378544;26;20242;-70
2024/04/10 12:00:36;;;;;;;2.83;0.63;;;;;;;;;;5385674;26;21023;-70
2024/04/10 12:03:02;;;;;;;2.92;0.65;;;;;;;;;;5383225;26;20243;-70
2024/04/10 12:05:27;;;;;;;3.25;0.65;;;;;;;;;;5385254;26;20277;-70
2024/04/10 12:07:54;;;;;;;3.33;0.52;;;;;;;;;;5383301;26;20290;-71
2024/04/10 12:10:19;;;;;;;4.25;0.77;;;;;;;;;;5386586;26;20238;-70
2024/04/10 12:12:47;;;;;;;2.53;0.70;;;;;;;;;;5386238;26;20239;-70
2024/04/10 12:15:13;;;;;;;1.70;0.60;;;;;;;;;;5386439;26;20287;-70
2024/04/10 12:17:38;;;;;;;4.03;1.27;;;;;;;;;;5386869;26;20254;-69
2024/04/10 12:20:03;;;;;;;2.42;0.60;;;;;;;;;;5393913;26;20243;-69
2024/04/10 12:22:29;;;;;;;2.20;0.90;;;;;;;;;;5387958;26;20825;-70
2024/04/10 12:24:54;;;;;;;3.40;0.95;;;;;;;;;;5379742;26;20726;-72
2024/04/10 12:27:19;;;;;;;3.20;0.60;;;;;;;;;;5384496;26;20231;-70
2024/04/10 12:29:45;;;;;;;1.70;0.63;;;;;;;;;;5385086;26;20742;-70
2024/04/10 12:32:10;;;;;;;3.67;1.05;;;;;;;;;;5384023;26;20343;-70
2024/04/10 12:34:35;;;;;;;4.10;0.65;;;;;;;;;;5384333;26;20263;-72
2024/04/10 12:39:48;;;;;;;2.55;0.60;;;;;;;;;;5387198;26;20265;-71
2024/04/10 12:42:15;;;;;;;2.92;0.77;;;;;;;;;;5385001;26;20339;-71
2024/04/10 12:44:41;;;;;;;4.40;1.00;;;;;;;;;;5383844;26;20277;-69
2024/04/10 12:47:07;;;;;;;8.68;1.25;;;;;;;;;;5384037;26;20888;-70
2024/04/10 12:49:32;;;;;;;4.55;0.70;;;;;;;;;;5399181;26;20664;-68
2024/04/10 12:51:57;;;;;;;2.60;0.50;;;;;;;;;;5383949;26;20997;-70
2024/04/10 12:54:23;;;;;;;2.65;0.60;;;;;;;;;;5384181;26;20231;-70
2024/04/10 12:56:48;;;;;;;3.90;1.17;;;;;;;;;;5383321;26;20626;-70
2024/04/10 12:59:14;;;;;;;3.33;0.73;;;;;;;;;;5381572;26;20836;-69
2024/04/10 13:01:39;;;;;;;1.77;0.60;;;;;;;;;;5379852;26;20269;-69
2024/04/10 13:04:05;;;;;;;2.97;0.63;;;;;;;;;;5384919;26;20340;-71
2024/04/10 13:06:30;;;;;;;1.42;0.65;;;;;;;;;;5384270;26;20332;-67
2024/04/10 13:08:56;;;;;;;2.80;0.40;;;;;;;;;;5381446;26;20335;-66
2024/04/10 13:11:21;;;;;;;5.25;1.00;;;;;;;;;;5384341;26;20285;-70
2024/04/10 13:13:46;;;;;;;0.57;0.55;;;;;;;;;;5384045;26;21001;-70
2024/04/10 13:16:12;;;;;;;2.78;0.60;;;;;;;;;;5382459;26;20377;-71
2024/04/10 13:18:37;;;;;;;3.90;0.60;;;;;;;;;;5385347;26;20604;-71
2024/04/10 13:21:03;;;;;;;2.35;0.95;;;;;;;;;;5387605;26;20238;-69
2024/04/10 13:23:30;;;;;;;1.35;0.50;;;;;;;;;;5376688;26;20297;-70
2024/04/10 13:26:09;;;;;;;1.17;0.60;;;;;;;;;;5382261;26;20328;-70
2024/04/10 13:28:36;;;;;;;2.33;0.65;;;;;;;;;;5383723;26;20280;-70
2024/04/10 13:31:15;;;;;;;1.02;0.60;;;;;;;;;;5381866;26;20565;-70
2024/04/10 13:33:44;;;;;;;4.90;0.57;;;;;;;;;;5381375;26;20287;-68
2024/04/10 13:36:11;;;;;;;2.17;0.70;;;;;;;;;;5382541;26;20232;-70
2024/04/10 13:38:37;;;;;;;2.30;0.63;;;;;;;;;;5381639;26;20368;-70
2024/04/10 13:41:03;;;;;;;2.10;0.77;;;;;;;;;;5379829;26;20368;-70
2024/04/10 13:43:28;;;;;;;1.88;0.80;;;;;;;;;;5379981;26;20239;-70
2024/04/10 13:45:54;;;;;;;7.15;1.10;;;;;;;;;;5384192;26;20280;-69
2024/04/10 13:48:20;;;;;;;3.20;0.90;;;;;;;;;;5383177;26;20277;-69
2024/04/10 13:50:45;;;;;;;5.10;1.10;;;;;;;;;;5382573;26;20637;-70
2024/04/10 13:53:10;;;;;;;4.30;1.30;;;;;;;;;;5382495;26;20344;-70
2024/04/10 13:55:35;;;;;;;3.53;0.70;;;;;;;;;;5382876;26;20231;-69
2024/04/10 13:58:00;;;;;;;2.92;0.75;;;;;;;;;;5385008;26;20686;-70
2024/04/10 14:00:28;;;;;;;1.50;0.70;;;;;;;;;;5384909;26;20250;-72
2024/04/10 14:02:53;;;;;;;1.70;0.90;;;;;;;;;;5382458;26;20231;-70
2024/04/10 14:05:19;;;;;;;1.90;1.20;;;;;;;;;;5383439;26;20294;-71
2024/04/10 14:07:45;;;;;;;1.55;0.75;;;;;;;;;;5384034;26;20568;-71
2024/04/10 14:10:10;;;;;;;5.57;0.88;;;;;;;;;;5385066;26;20242;-70
2024/04/10 14:12:37;;;;;;;3.05;0.70;;;;;;;;;;5383040;26;20838;-69
2024/04/10 14:15:03;;;;;;;3.55;0.77;;;;;;;;;;5379661;26;20409;-70
2024/04/10 14:17:28;;;;;;;2.95;0.70;;;;;;;;;;5385522;26;20954;-71
2024/04/10 14:19:53;;;;;;;1.90;0.50;;;;;;;;;;5388078;26;20332;-69
2024/04/10 14:22:19;;;;;;;5.13;0.95;;;;;;;;;;5391524;26;20247;-69
2024/04/10 14:24:44;;;;;;;2.25;0.90;;;;;;;;;;5407028;26;20238;-71
2024/04/10 14:27:09;;;;;;;2.55;0.85;;;;;;;;;;5382953;26;20285;-70
2024/04/10 14:29:34;;;;;;;1.92;0.65;;;;;;;;;;5382390;26;20230;-71
2024/04/10 14:31:59;;;;;;;3.30;1.02;;;;;;;;;;5383888;26;20760;-71
2024/04/10 14:34:24;;;;;;;3.58;1.27;;;;;;;;;;5383113;26;20366;-70
2024/04/10 14:36:50;;;;;;;2.28;1.00;;;;;;;;;;5383566;26;20293;-71